Time;durP1;ratioP1;P1;durP2;ratioP2;P2;SDS_P1;SDS_P2;PMS_P1;PMS_P2;Temp;Humidity;BMP_temperature;BMP_pressure;BME280_temperature;BME280_humidity;BME280_pressure;Samples;Min_cycle;Max_cycle;Signal;HPM_P1;HPM_P2
2022/10/23 00:01:28;;;;;;;7.07;5.03;;;9.40;99.90;;;;;;5093331;28;20035;-64
2022/10/23 00:04:12;;;;;;;10.88;6.47;;;9.30;99.90;;;;;;5094900;28;20066;-64
2022/10/23 00:06:37;;;;;;;6.90;5.60;;;9.40;99.90;;;;;;5099398;28;20044;-64
2022/10/23 00:09:05;;;;;;;10.00;5.22;;;9.30;99.90;;;;;;5086886;28;20043;-64
2022/10/23 00:11:32;;;;;;;5.85;4.80;;;9.40;99.90;;;;;;5070003;28;20051;-64
2022/10/23 00:14:00;;;;;;;6.82;5.22;;;9.30;99.90;;;;;;5084055;28;20045;-64
2022/10/23 00:16:27;;;;;;;10.05;4.97;;;9.40;99.90;;;;;;5090161;28;20043;-64
2022/10/23 00:18:52;;;;;;;8.50;4.53;;;9.30;99.90;;;;;;5090148;28;20067;-64
2022/10/23 00:21:18;;;;;;;6.70;5.90;;;9.30;99.90;;;;;;5074065;28;20044;-64
2022/10/23 00:23:44;;;;;;;12.10;5.80;;;9.20;99.90;;;;;;5087885;28;20043;-64
2022/10/23 00:26:14;;;;;;;8.40;6.15;;;9.30;99.90;;;;;;5094252;28;20044;-64
2022/10/23 00:28:45;;;;;;;9.55;6.32;;;9.20;99.90;;;;;;5102305;28;20075;-64
2022/10/23 00:31:11;;;;;;;9.32;6.47;;;9.30;99.90;;;;;;5084881;28;20053;-64
2022/10/23 00:33:36;;;;;;;10.88;8.05;;;9.40;99.90;;;;;;5078467;28;20060;-64
2022/10/23 00:36:10;;;;;;;13.50;9.20;;;9.40;99.90;;;;;;5100536;28;20036;-64
2022/10/23 00:38:36;;;;;;;11.18;9.07;;;9.40;99.90;;;;;;5079817;28;20044;-64
2022/10/23 00:41:03;;;;;;;11.55;9.20;;;9.40;99.90;;;;;;5060682;28;20036;-64
2022/10/23 00:43:30;;;;;;;11.13;9.05;;;9.40;99.90;;;;;;5077211;28;20047;-64
2022/10/23 00:45:57;;;;;;;15.43;9.93;;;9.40;99.90;;;;;;5084770;28;20104;-64
2022/10/23 00:48:24;;;;;;;13.70;10.40;;;9.40;99.90;;;;;;5072880;28;20052;-64
2022/10/23 00:50:49;;;;;;;14.02;9.63;;;9.40;99.90;;;;;;5073152;28;20055;-64
2022/10/23 00:53:17;;;;;;;40.97;12.63;;;9.40;99.90;;;;;;5085740;28;20040;-64
2022/10/23 00:55:45;;;;;;;10.68;9.52;;;9.30;99.90;;;;;;5068382;28;20614;-64
2022/10/23 00:58:17;;;;;;;11.88;8.98;;;9.30;99.90;;;;;;5072644;28;20072;-64
2022/10/23 01:00:44;;;;;;;17.27;8.50;;;9.40;99.90;;;;;;5084378;28;20109;-64
2022/10/23 01:03:10;;;;;;;16.02;9.30;;;9.30;99.90;;;;;;5085932;28;20059;-64
2022/10/23 01:05:47;;;;;;;65.90;11.95;;;9.30;99.90;;;;;;5086404;28;20065;-64
2022/10/23 01:08:27;;;;;;;24.58;10.43;;;9.30;99.90;;;;;;5107662;28;20521;-64
2022/10/23 01:11:23;;;;;;;24.25;10.75;;;9.20;99.90;;;;;;5085193;28;20106;-64
2022/10/23 01:14:09;;;;;;;74.63;13.02;;;9.20;99.90;;;;;;5089526;28;20056;-64
2022/10/23 01:16:51;;;;;;;17.40;10.68;;;9.10;99.90;;;;;;5095620;28;20052;-64
2022/10/23 01:19:32;;;;;;;13.70;9.40;;;9.30;99.90;;;;;;5092555;28;20039;-64
2022/10/23 01:22:25;;;;;;;11.18;8.77;;;9.30;99.90;;;;;;5082700;28;20132;-64
2022/10/23 01:25:14;;;;;;;15.40;10.38;;;9.30;99.90;;;;;;5070067;28;20083;-64
2022/10/23 01:27:44;;;;;;;12.13;9.05;;;9.10;99.90;;;;;;5098868;28;20476;-64
2022/10/23 01:30:15;;;;;;;10.27;7.78;;;9.10;99.90;;;;;;5074753;28;20040;-64
2022/10/23 01:32:53;;;;;;;8.45;7.03;;;9.00;99.90;;;;;;5076307;28;20049;-64
2022/10/23 01:35:34;;;;;;;14.73;6.53;;;9.00;99.90;;;;;;5086469;28;20100;-64
2022/10/23 01:38:05;;;;;;;10.70;7.90;;;8.90;99.90;;;;;;5102917;28;20377;-64
2022/10/23 01:40:47;;;;;;;8.57;7.68;;;9.00;99.90;;;;;;5075701;28;20058;-64
2022/10/23 01:43:22;;;;;;;13.55;8.57;;;9.10;99.90;;;;;;5104511;28;20261;-64
2022/10/23 01:45:56;;;;;;;19.73;8.18;;;9.00;99.90;;;;;;5104256;28;20044;-64
2022/10/23 01:48:26;;;;;;;9.23;7.65;;;9.00;99.90;;;;;;5091462;28;20092;-64
2022/10/23 01:50:54;;;;;;;7.97;6.95;;;9.10;99.90;;;;;;5096354;28;20097;-64
2022/10/23 01:53:22;;;;;;;8.43;6.93;;;9.10;99.90;;;;;;5079728;28;20072;-64
2022/10/23 01:55:49;;;;;;;8.68;7.88;;;9.10;99.90;;;;;;5077777;28;20048;-64
2022/10/23 01:58:19;;;;;;;10.93;8.63;;;9.30;99.90;;;;;;5058621;28;20049;-64
2022/10/23 02:00:46;;;;;;;;;;;9.30;99.90;;;;;;5086435;28;20524;-64
2022/10/23 02:03:14;;;;;;;10.15;9.15;;;9.30;99.90;;;;;;5066412;28;19943;-64
2022/10/23 02:05:40;;;;;;;11.60;9.38;;;9.40;99.90;;;;;;5085646;28;20049;-64
2022/10/23 02:08:06;;;;;;;12.00;10.18;;;9.50;99.90;;;;;;5079040;28;20079;-64
2022/10/23 02:10:41;;;;;;;16.70;10.85;;;9.60;99.90;;;;;;5066210;28;20515;-64
2022/10/23 02:13:19;;;;;;;14.65;11.80;;;9.70;99.90;;;;;;5095133;28;20040;-64
2022/10/23 02:15:49;;;;;;;23.00;12.48;;;9.70;99.90;;;;;;5096284;28;20052;-64
2022/10/23 02:18:29;;;;;;;22.33;14.98;;;9.90;99.90;;;;;;5093823;28;20070;-64
2022/10/23 02:20:59;;;;;;;23.85;16.20;;;9.90;99.90;;;;;;5077000;28;20215;-64
2022/10/23 02:23:29;;;;;;;;;;;10.10;99.90;;;;;;5104744;28;20123;-64
2022/10/23 02:26:33;;;;;;;23.00;16.05;;;10.10;99.90;;;;;;5102050;28;19921;-64
2022/10/23 02:29:08;;;;;;;26.38;16.85;;;10.20;99.90;;;;;;5018835;28;20065;-64
2022/10/23 02:31:33;;;;;;;20.77;15.40;;;10.30;99.90;;;;;;5013820;28;20051;-64
2022/10/23 02:33:59;;;;;;;23.90;16.60;;;10.30;99.90;;;;;;4986399;28;20057;-64
2022/10/23 02:36:25;;;;;;;26.10;18.75;;;10.40;99.90;;;;;;4987080;28;20042;-64
2022/10/23 02:38:51;;;;;;;19.88;15.98;;;10.50;99.90;;;;;;5003415;28;20067;-64
2022/10/23 02:41:43;;;;;;;25.73;16.25;;;10.50;99.90;;;;;;4991011;28;20081;-64
2022/10/23 02:44:23;;;;;;;22.90;17.38;;;10.60;99.90;;;;;;5015419;28;20060;-64
2022/10/23 02:47:13;;;;;;;26.23;17.30;;;10.60;99.90;;;;;;5018015;28;20092;-64
2022/10/23 02:49:53;;;;;;;25.33;16.92;;;10.60;99.90;;;;;;5011209;28;20045;-64
2022/10/23 02:52:52;;;;;;;29.52;16.92;;;10.70;99.90;;;;;;5017021;28;20045;-64
2022/10/23 02:55:35;;;;;;;26.70;16.13;;;10.60;99.90;;;;;;4974607;28;20055;-64
2022/10/23 02:58:09;;;;;;;22.83;15.55;;;10.70;99.90;;;;;;4981016;28;20089;-64
2022/10/23 03:00:38;;;;;;;28.15;17.08;;;10.60;99.90;;;;;;4953588;28;20082;-64
2022/10/23 03:03:16;;;;;;;22.45;16.20;;;10.60;99.90;;;;;;4955132;29;20062;-64
2022/10/23 03:05:43;;;;;;;25.00;16.55;;;10.70;99.90;;;;;;5005236;28;20561;-64
2022/10/23 03:08:11;;;;;;;22.25;15.65;;;10.60;99.90;;;;;;5006084;28;20101;-64
2022/10/23 03:10:38;;;;;;;23.50;16.63;;;10.60;99.90;;;;;;5007049;28;20046;-64
2022/10/23 03:13:04;;;;;;;29.52;16.67;;;10.70;99.90;;;;;;5019083;28;20058;-64
2022/10/23 03:15:29;;;;;;;24.55;16.13;;;10.50;99.90;;;;;;5017528;28;20049;-64
2022/10/23 03:17:55;;;;;;;24.92;16.45;;;10.60;99.90;;;;;;5025907;28;20054;-64
2022/10/23 03:20:21;;;;;;;23.08;16.60;;;10.70;99.90;;;;;;5031857;28;20075;-64
2022/10/23 03:22:46;;;;;;;30.88;16.48;;;10.60;99.90;;;;;;5027064;28;20085;-64
2022/10/23 03:25:12;;;;;;;29.92;17.42;;;10.60;99.90;;;;;;4999642;28;20109;-64
2022/10/23 03:27:38;;;;;;;20.77;15.57;;;10.60;99.90;;;;;;5026810;28;20050;-64
2022/10/23 03:30:05;;;;;;;24.50;14.95;;;10.50;99.90;;;;;;5010707;28;20050;-64
2022/10/23 03:32:31;;;;;;;23.30;15.88;;;10.50;99.90;;;;;;5049185;28;20061;-64
2022/10/23 03:34:56;;;;;;;20.02;15.23;;;10.50;99.90;;;;;;5090207;28;20044;-64
2022/10/23 03:37:22;;;;;;;20.42;14.57;;;10.50;99.90;;;;;;5089854;28;20041;-64
2022/10/23 03:39:48;;;;;;;19.52;14.45;;;10.60;99.90;;;;;;5068525;28;20615;-64
2022/10/23 03:42:14;;;;;;;27.35;15.48;;;10.50;99.90;;;;;;5086806;28;20037;-64
2022/10/23 03:44:39;;;;;;;22.02;15.55;;;10.50;99.90;;;;;;5087958;28;20040;-64
2022/10/23 03:47:05;;;;;;;25.85;15.75;;;10.50;99.90;;;;;;5067594;28;20075;-64
2022/10/23 03:49:31;;;;;;;18.80;13.93;;;10.60;99.90;;;;;;5067346;28;20043;-64
2022/10/23 03:51:56;;;;;;;24.65;15.82;;;10.50;99.90;;;;;;5073534;28;20048;-64
2022/10/23 03:54:24;;;;;;;20.83;15.10;;;10.60;99.90;;;;;;5079015;28;20041;-64
2022/10/23 03:56:50;;;;;;;25.08;14.77;;;10.60;99.90;;;;;;5067902;28;20124;-64
2022/10/23 03:59:16;;;;;;;21.02;14.25;;;10.50;99.90;;;;;;5092944;28;20261;-64
2022/10/23 04:01:42;;;;;;;21.50;14.90;;;10.50;99.90;;;;;;5094284;28;20090;-64
2022/10/23 04:04:08;;;;;;;20.08;14.30;;;10.50;99.90;;;;;;5075286;28;20037;-64
2022/10/23 04:06:34;;;;;;;27.58;17.02;;;10.50;99.90;;;;;;5092518;28;20045;-64
2022/10/23 04:09:00;;;;;;;25.70;15.60;;;10.50;99.90;;;;;;5090358;28;20096;-64
2022/10/23 04:11:25;;;;;;;22.00;15.73;;;10.40;99.90;;;;;;5077186;28;20083;-64
2022/10/23 04:13:51;;;;;;;31.35;16.35;;;10.30;99.90;;;;;;5075644;28;20036;-64
2022/10/23 04:16:17;;;;;;;35.10;13.65;;;10.30;99.90;;;;;;5076369;28;20080;-64
2022/10/23 04:18:42;;;;;;;36.95;11.27;;;10.40;99.90;;;;;;5074828;28;20036;-64
2022/10/23 04:21:09;;;;;;;44.20;9.90;;;10.30;99.90;;;;;;5095791;28;20127;-64
2022/10/23 04:23:35;;;;;;;43.00;11.15;;;10.10;99.90;;;;;;5064092;28;20051;-64
2022/10/23 04:26:01;;;;;;;41.58;11.95;;;9.90;99.90;;;;;;5096243;28;20028;-64
2022/10/23 04:28:27;;;;;;;55.58;12.95;;;9.90;99.90;;;;;;5072175;28;20217;-64
2022/10/23 04:30:52;;;;;;;38.17;14.23;;;9.90;99.90;;;;;;5085489;28;20110;-64
2022/10/23 04:33:18;;;;;;;31.05;14.20;;;9.90;99.90;;;;;;5099789;28;20040;-64
2022/10/23 04:35:44;;;;;;;47.55;12.98;;;10.00;99.90;;;;;;5074110;28;20120;-64
2022/10/23 04:38:10;;;;;;;19.95;12.25;;;10.00;99.90;;;;;;5097334;28;20036;-64
2022/10/23 04:40:36;;;;;;;14.20;10.93;;;9.90;99.90;;;;;;5068452;28;20055;-64
2022/10/23 04:43:02;;;;;;;20.38;12.35;;;9.90;99.90;;;;;;5066317;28;20120;-64
2022/10/23 04:45:27;;;;;;;18.05;11.40;;;9.90;99.90;;;;;;5084149;28;20496;-64
2022/10/23 04:47:53;;;;;;;20.88;14.00;;;9.90;99.90;;;;;;5063761;28;20041;-64
2022/10/23 04:50:19;;;;;;;18.80;13.35;;;10.00;99.90;;;;;;5065145;28;20447;-64
2022/10/23 04:52:45;;;;;;;21.95;14.57;;;9.90;99.90;;;;;;5083948;28;20105;-64
2022/10/23 04:55:11;;;;;;;24.90;13.88;;;9.90;99.90;;;;;;5086583;28;20075;-64
2022/10/23 04:57:37;;;;;;;29.00;14.57;;;10.00;99.90;;;;;;5086430;28;20040;-64
2022/10/23 05:00:05;;;;;;;25.92;14.52;;;9.90;99.90;;;;;;5068665;28;20082;-64
2022/10/23 05:02:31;;;;;;;30.30;14.43;;;9.90;99.90;;;;;;5086323;28;20041;-64
2022/10/23 05:04:56;;;;;;;31.77;15.48;;;10.00;99.90;;;;;;5088179;28;20536;-64
2022/10/23 05:07:22;;;;;;;38.78;14.75;;;10.10;99.90;;;;;;5085595;28;20068;-64
2022/10/23 05:09:48;;;;;;;26.05;14.20;;;10.00;99.90;;;;;;5077918;28;20041;-64
2022/10/23 05:12:14;;;;;;;20.00;13.68;;;10.10;99.90;;;;;;5098429;28;20039;-64
2022/10/23 05:14:39;;;;;;;25.75;14.00;;;10.10;99.90;;;;;;5098385;28;20475;-64
2022/10/23 05:17:17;;;;;;;19.70;14.73;;;10.20;99.90;;;;;;5092067;28;20044;-64
2022/10/23 05:19:52;;;;;;;32.13;12.77;;;10.20;99.90;;;;;;5106718;28;20067;-64
2022/10/23 05:22:19;;;;;;;33.90;9.88;;;10.00;99.90;;;;;;5093119;28;20089;-64
2022/10/23 05:24:45;;;;;;;42.75;8.15;;;10.00;99.90;;;;;;5094093;28;20067;-64
2022/10/23 05:27:11;;;;;;;48.28;8.63;;;9.90;99.90;;;;;;5085705;28;20099;-64
2022/10/23 05:29:37;;;;;;;63.85;8.77;;;9.80;99.90;;;;;;5067565;28;20056;-64
2022/10/23 05:32:05;;;;;;;47.22;7.75;;;9.60;99.90;;;;;;5082989;28;20048;-64
2022/10/23 05:34:33;;;;;;;91.35;10.27;;;9.60;99.90;;;;;;5057859;28;20067;-64
2022/10/23 05:37:00;;;;;;;104.07;10.57;;;9.50;99.90;;;;;;5100148;28;20036;-64
2022/10/23 05:39:26;;;;;;;62.00;8.60;;;9.50;99.90;;;;;;5077733;28;20046;-64
2022/10/23 05:41:53;;;;;;;39.28;8.93;;;9.40;99.90;;;;;;5071160;28;20071;-64
2022/10/23 05:44:19;;;;;;;59.63;8.88;;;9.40;99.90;;;;;;5096137;28;20511;-64
2022/10/23 05:46:45;;;;;;;33.10;9.80;;;9.40;99.90;;;;;;5074463;28;20044;-64
2022/10/23 05:49:11;;;;;;;85.40;10.60;;;9.40;99.90;;;;;;5070182;28;20044;-64
2022/10/23 05:51:39;;;;;;;67.97;10.73;;;9.30;99.90;;;;;;5099128;28;20040;-64
2022/10/23 05:54:09;;;;;;;36.10;8.50;;;9.30;99.90;;;;;;5094174;28;20507;-64
2022/10/23 05:56:35;;;;;;;;;;;9.20;99.90;;;;;;5088655;28;20488;-64
2022/10/23 05:59:01;;;;;;;60.13;10.48;;;9.20;99.90;;;;;;5085492;28;19979;-64
2022/10/23 06:01:27;;;;;;;45.67;10.60;;;9.10;99.90;;;;;;5093930;28;20048;-64
2022/10/23 06:03:52;;;;;;;69.13;11.88;;;9.10;99.90;;;;;;5074685;28;20041;-64
2022/10/23 06:06:18;;;;;;;62.95;10.65;;;9.20;99.90;;;;;;5088555;28;20044;-64
2022/10/23 06:08:44;;;;;;;39.25;9.55;;;9.10;99.90;;;;;;5093865;28;20044;-64
2022/10/23 06:11:12;;;;;;;62.50;10.80;;;9.10;99.90;;;;;;5078294;28;20052;-64
2022/10/23 06:13:40;;;;;;;69.72;13.25;;;9.10;99.90;;;;;;5092040;28;20454;-64
2022/10/23 06:16:15;;;;;;;35.50;10.05;;;9.10;99.90;;;;;;5076638;28;20052;-64
2022/10/23 06:18:42;;;;;;;49.53;13.32;;;9.20;99.90;;;;;;5075617;28;20043;-64
2022/10/23 06:21:08;;;;;;;29.27;11.13;;;9.10;99.90;;;;;;5100294;28;20032;-64
2022/10/23 06:23:35;;;;;;;25.38;9.68;;;9.10;99.90;;;;;;5090003;28;20055;-64
2022/10/23 06:26:01;;;;;;;21.45;9.48;;;9.20;99.90;;;;;;5080151;28;20044;-64
2022/10/23 06:28:27;;;;;;;17.95;9.25;;;9.10;99.90;;;;;;5084715;28;20072;-64
2022/10/23 06:30:53;;;;;;;16.73;10.27;;;9.10;99.90;;;;;;5099381;28;20051;-64
2022/10/23 06:33:19;;;;;;;18.48;11.00;;;9.10;99.90;;;;;;5102412;28;20082;-64
2022/10/23 06:35:45;;;;;;;19.63;11.85;;;9.20;99.90;;;;;;5101837;28;20044;-64
2022/10/23 06:38:10;;;;;;;23.35;15.32;;;9.30;99.90;;;;;;5084963;28;20044;-64
2022/10/23 06:40:37;;;;;;;24.67;16.17;;;9.40;99.90;;;;;;5079668;28;20491;-64
2022/10/23 06:43:04;;;;;;;26.40;16.48;;;9.50;99.90;;;;;;5099341;28;20061;-64
2022/10/23 06:45:31;;;;;;;28.80;17.80;;;9.60;99.90;;;;;;5083566;28;20075;-64
2022/10/23 06:47:57;;;;;;;25.75;17.55;;;9.70;99.90;;;;;;5102880;28;20036;-64
2022/10/23 06:50:24;;;;;;;25.52;17.40;;;9.80;99.90;;;;;;5087854;28;20094;-64
2022/10/23 06:52:49;;;;;;;30.35;19.20;;;9.90;99.90;;;;;;5086061;28;20051;-64
2022/10/23 06:55:16;;;;;;;31.27;17.77;;;10.00;99.90;;;;;;5085125;28;20070;-64
2022/10/23 06:57:42;;;;;;;24.55;17.67;;;10.00;99.90;;;;;;5105294;28;20044;-64
2022/10/23 07:00:08;;;;;;;27.90;17.73;;;10.10;99.90;;;;;;5087043;28;20123;-64
2022/10/23 07:02:34;;;;;;;30.65;17.70;;;10.20;99.90;;;;;;5094026;28;20576;-64
2022/10/23 07:05:00;;;;;;;25.40;17.45;;;10.20;99.90;;;;;;5086925;28;20041;-64
2022/10/23 07:07:28;;;;;;;25.55;17.15;;;10.30;99.90;;;;;;5067344;28;20710;-64
2022/10/23 07:09:54;;;;;;;31.33;18.65;;;10.40;99.90;;;;;;5083995;28;20036;-64
2022/10/23 07:12:20;;;;;;;27.40;16.33;;;10.30;99.90;;;;;;5076156;28;20133;-64
2022/10/23 07:14:45;;;;;;;27.35;16.92;;;10.30;99.90;;;;;;5096203;28;20079;-64
2022/10/23 07:17:11;;;;;;;21.90;16.02;;;10.40;99.90;;;;;;5090391;28;20434;-64
2022/10/23 07:19:37;;;;;;;22.50;16.17;;;10.50;99.90;;;;;;5083778;28;20060;-64
2022/10/23 07:22:02;;;;;;;30.98;17.85;;;10.40;99.90;;;;;;5100331;28;20040;-64
2022/10/23 07:24:30;;;;;;;25.77;15.75;;;10.40;99.90;;;;;;5087829;28;20075;-64
2022/10/23 07:26:57;;;;;;;23.88;15.18;;;10.50;99.90;;;;;;5099896;28;20040;-64
2022/10/23 07:29:23;;;;;;;28.77;15.93;;;10.50;99.90;;;;;;5101891;28;20040;-64
2022/10/23 07:31:48;;;;;;;27.65;14.50;;;10.50;99.90;;;;;;5097121;28;20063;-64
2022/10/23 07:34:14;;;;;;;28.05;16.52;;;10.60;99.90;;;;;;5104121;28;20533;-64
2022/10/23 07:36:40;;;;;;;24.65;16.05;;;10.60;99.90;;;;;;5088365;28;20045;-64
2022/10/23 07:39:05;;;;;;;21.23;14.57;;;10.70;99.90;;;;;;5091007;28;20047;-64
2022/10/23 07:41:31;;;;;;;22.42;14.88;;;10.60;99.90;;;;;;5091806;28;20069;-64
2022/10/23 07:43:57;;;;;;;24.73;16.10;;;10.60;99.90;;;;;;5094490;28;20146;-64
2022/10/23 07:46:23;;;;;;;21.15;14.93;;;10.70;99.90;;;;;;5097982;28;20043;-64
2022/10/23 07:48:48;;;;;;;19.63;15.05;;;10.70;99.90;;;;;;5091728;28;20079;-64
2022/10/23 07:51:15;;;;;;;22.00;14.77;;;10.70;99.90;;;;;;5098183;28;20100;-64
2022/10/23 07:53:41;;;;;;;21.92;13.95;;;10.70;99.90;;;;;;5076293;28;20063;-64
2022/10/23 07:56:22;;;;;;;23.42;14.57;;;10.70;99.90;;;;;;5073526;28;20049;-64
2022/10/23 07:58:49;;;;;;;;;;;10.80;99.90;;;;;;5097585;28;20036;-61
2022/10/23 08:01:31;;;;;;;18.30;13.18;;;10.80;99.90;;;;;;5099466;28;19931;-65
2022/10/23 08:03:58;;;;;;;19.48;14.40;;;10.80;99.90;;;;;;5075903;28;20040;-64
2022/10/23 08:06:23;;;;;;;21.88;14.55;;;10.80;99.90;;;;;;5066074;28;20500;-65
2022/10/23 08:08:49;;;;;;;25.13;14.65;;;10.90;99.90;;;;;;5063705;28;20059;-65
2022/10/23 08:11:19;;;;;;;21.77;13.13;;;10.90;99.90;;;;;;5084456;28;20033;-65
2022/10/23 08:13:44;;;;;;;19.30;13.15;;;11.10;99.90;;;;;;5079424;28;20123;-65
2022/10/23 08:16:10;;;;;;;21.70;13.15;;;11.10;99.90;;;;;;5064494;28;20079;-65
2022/10/23 08:18:36;;;;;;;21.40;13.52;;;11.20;99.90;;;;;;5064327;28;20193;-64
2022/10/23 08:21:03;;;;;;;21.58;14.60;;;11.10;99.90;;;;;;5049582;28;20032;-65
2022/10/23 08:23:29;;;;;;;18.38;14.88;;;11.30;99.90;;;;;;5069359;28;20060;-64
2022/10/23 08:26:04;;;;;;;23.38;13.57;;;11.30;99.90;;;;;;5066018;28;20044;-64
2022/10/23 08:28:31;;;;;;;21.05;12.95;;;11.30;99.90;;;;;;5047038;28;20048;-65
2022/10/23 08:30:57;;;;;;;21.52;13.20;;;11.50;99.90;;;;;;5057162;28;20053;-65
2022/10/23 08:33:23;;;;;;;21.58;13.18;;;11.50;99.90;;;;;;5029755;28;20056;-65
2022/10/23 08:35:50;;;;;;;23.10;13.82;;;11.50;99.90;;;;;;5045425;28;20440;-65
2022/10/23 08:38:15;;;;;;;20.23;13.93;;;11.70;99.90;;;;;;5058106;28;20046;-65
2022/10/23 08:40:48;;;;;;;23.95;14.00;;;11.70;99.90;;;;;;5047737;28;20068;-64
2022/10/23 08:43:44;;;;;;;20.08;13.02;;;11.80;99.90;;;;;;5058509;28;20044;-65
2022/10/23 08:46:16;;;;;;;21.98;14.10;;;11.80;99.90;;;;;;5040870;28;20053;-64
2022/10/23 08:48:49;;;;;;;20.08;12.70;;;11.80;99.90;;;;;;5047808;28;20497;-65
2022/10/23 08:51:24;;;;;;;25.95;13.43;;;12.00;99.90;;;;;;5049145;28;20079;-65
2022/10/23 08:53:58;;;;;;;18.75;14.18;;;12.10;99.90;;;;;;5030868;28;20633;-64
2022/10/23 08:56:32;;;;;;;19.48;12.45;;;12.00;99.90;;;;;;5063559;28;20040;-64
2022/10/23 08:59:06;;;;;;;20.88;13.18;;;12.10;99.90;;;;;;5047317;28;20048;-65
2022/10/23 09:01:44;;;;;;;17.80;11.70;;;12.20;99.90;;;;;;5065467;28;20045;-64
2022/10/23 09:04:12;;;;;;;19.90;12.50;;;12.20;99.90;;;;;;5063993;28;20052;-65
2022/10/23 09:06:58;;;;;;;16.65;13.13;;;12.40;99.90;;;;;;5022439;28;20214;-61
2022/10/23 09:09:45;;;;;;;22.67;13.63;;;12.30;99.90;;;;;;5023926;28;20984;-61
2022/10/23 09:12:16;;;;;;;21.50;11.25;;;12.50;99.90;;;;;;5037974;28;20084;-62
2022/10/23 09:14:56;;;;;;;17.13;11.30;;;12.50;99.90;;;;;;5054441;28;20048;-61
2022/10/23 09:17:22;;;;;;;;;;;12.60;99.90;;;;;;5041591;28;20049;-61
2022/10/23 09:19:53;;;;;;;16.63;12.23;;;12.70;99.90;;;;;;5059375;28;19920;-61
2022/10/23 09:22:19;;;;;;;21.50;12.57;;;12.60;99.90;;;;;;5032755;28;20047;-61
2022/10/23 09:24:44;;;;;;;17.50;12.73;;;12.80;99.90;;;;;;5037445;28;20057;-62
2022/10/23 09:27:15;;;;;;;23.67;13.23;;;12.90;99.90;;;;;;5048539;28;20055;-68
2022/10/23 09:29:51;;;;;;;18.52;11.45;;;13.00;99.90;;;;;;5057294;28;20048;-70
2022/10/23 09:32:18;;;;;;;19.98;11.25;;;12.90;99.90;;;;;;5042263;28;20049;-67
2022/10/23 09:34:54;;;;;;;19.30;11.85;;;13.10;99.90;;;;;;5041608;28;20079;-66
2022/10/23 09:37:25;;;;;;;14.45;11.32;;;13.10;99.90;;;;;;5035342;28;20049;-66
2022/10/23 09:40:11;;;;;;;23.60;10.77;;;13.30;99.90;;;;;;5062130;28;20532;-66
2022/10/23 09:42:36;;;;;;;18.45;10.15;;;13.30;99.90;;;;;;5044022;28;20049;-66
2022/10/23 09:45:03;;;;;;;13.90;9.45;;;13.40;99.90;;;;;;5037546;28;20107;-64
2022/10/23 09:47:28;;;;;;;22.13;10.40;;;13.50;99.90;;;;;;5058490;28;20037;-66
2022/10/23 09:49:55;;;;;;;15.25;11.00;;;13.50;99.90;;;;;;5042272;28;20049;-67
2022/10/23 09:52:38;;;;;;;17.52;10.25;;;13.60;99.90;;;;;;5046017;28;20033;-66
2022/10/23 09:55:20;;;;;;;16.30;9.75;;;13.80;99.90;;;;;;4995870;28;20095;-66
2022/10/23 09:57:46;;;;;;;15.63;9.50;;;13.80;99.90;;;;;;5059901;28;20100;-66
2022/10/23 10:00:19;;;;;;;14.20;9.90;;;13.80;99.90;;;;;;5063562;28;20067;-66
2022/10/23 10:03:02;;;;;;;19.95;11.57;;;13.90;99.90;;;;;;5040847;28;20136;-66
2022/10/23 10:05:36;;;;;;;17.05;8.70;;;13.90;99.90;;;;;;5046732;28;20048;-66
2022/10/23 10:08:20;;;;;;;17.02;10.27;;;14.10;99.90;;;;;;5040459;28;20071;-66
2022/10/23 10:11:13;;;;;;;14.70;9.07;;;14.10;99.90;;;;;;5061785;28;20049;-66
2022/10/23 10:14:05;;;;;;;14.77;9.07;;;14.20;99.90;;;;;;5049419;28;20084;-66
2022/10/23 10:16:50;;;;;;;18.92;9.35;;;14.30;99.90;;;;;;5057510;28;20053;-66
2022/10/23 10:19:53;;;;;;;14.07;9.35;;;14.40;99.90;;;;;;5039394;28;20521;-66
2022/10/23 10:22:25;;;;;;;14.45;9.05;;;14.50;99.90;;;;;;5046781;28;20112;-67
2022/10/23 10:25:02;;;;;;;15.82;8.73;;;14.50;99.90;;;;;;5021622;28;20070;-67
2022/10/23 10:27:47;;;;;;;13.15;8.02;;;14.60;99.90;;;;;;5045815;28;20175;-66
2022/10/23 10:30:23;;;;;;;11.18;7.95;;;14.70;99.90;;;;;;5060039;28;20056;-66
2022/10/23 10:32:58;;;;;;;11.70;8.10;;;14.80;99.90;;;;;;5031857;28;20064;-67
2022/10/23 10:35:42;;;;;;;13.80;8.07;;;14.80;99.90;;;;;;5018606;28;20120;-66
2022/10/23 10:38:40;;;;;;;11.68;8.43;;;14.90;99.90;;;;;;5032501;28;20106;-66
2022/10/23 10:41:40;;;;;;;14.48;7.50;;;15.00;99.90;;;;;;5013741;28;20104;-66
2022/10/23 10:44:08;;;;;;;;;;;15.20;99.90;;;;;;5055382;28;20052;-66
2022/10/23 10:46:41;;;;;;;10.30;6.63;;;15.20;99.90;;;;;;5068693;28;19959;-66
2022/10/23 10:49:16;;;;;;;10.95;7.20;;;15.20;99.90;;;;;;5043473;28;20060;-66
2022/10/23 10:52:05;;;;;;;12.73;7.15;;;15.30;99.90;;;;;;5051677;28;20075;-66
2022/10/23 10:54:48;;;;;;;10.97;7.53;;;15.30;99.90;;;;;;5036926;28;20045;-66
2022/10/23 10:57:48;;;;;;;14.90;6.85;;;15.30;99.90;;;;;;5047818;28;20102;-66
2022/10/23 11:00:19;;;;;;;8.85;6.72;;;15.20;99.90;;;;;;5032302;28;20558;-67
2022/10/23 11:02:48;;;;;;;10.80;6.47;;;15.30;99.90;;;;;;5041864;28;20037;-66
2022/10/23 11:05:37;;;;;;;11.90;7.43;;;15.30;99.90;;;;;;5061238;28;20040;-66
2022/10/23 11:08:21;;;;;;;11.25;6.55;;;15.30;99.90;;;;;;5027588;28;20449;-66
2022/10/23 11:10:52;;;;;;;11.18;6.55;;;15.20;99.90;;;;;;5039702;28;20128;-66
2022/10/23 11:13:34;;;;;;;15.43;6.60;;;15.20;99.90;;;;;;5035340;28;20113;-66
2022/10/23 11:16:14;;;;;;;12.32;6.75;;;15.20;99.90;;;;;;5024280;28;20068;-66
2022/10/23 11:18:43;;;;;;;16.42;8.70;;;15.30;99.90;;;;;;5026500;28;20501;-66
2022/10/23 11:21:35;;;;;;;17.58;11.40;;;15.30;99.90;;;;;;5045526;28;20041;-67
2022/10/23 11:24:40;;;;;;;11.63;6.40;;;15.30;99.90;;;;;;5040394;28;20506;-66
2022/10/23 11:27:29;;;;;;;18.63;7.28;;;15.20;99.90;;;;;;5034894;28;20045;-67
2022/10/23 11:30:32;;;;;;;14.20;7.13;;;15.20;99.90;;;;;;5039479;28;20060;-66
2022/10/23 11:33:29;;;;;;;20.48;13.73;;;15.30;99.90;;;;;;5035780;28;20045;-66
2022/10/23 11:36:03;;;;;;;11.00;7.43;;;15.30;99.90;;;;;;5015122;28;20620;-66
2022/10/23 11:38:33;;;;;;;10.68;7.28;;;15.20;99.90;;;;;;5056074;28;20049;-67
2022/10/23 11:41:01;;;;;;;;;;;15.30;99.90;;;;;;5016913;28;20053;-69
2022/10/23 11:43:32;;;;;;;11.38;7.80;;;15.20;99.90;;;;;;5041266;28;19929;-66
2022/10/23 11:46:10;;;;;;;13.25;5.85;;;15.20;99.90;;;;;;5039075;28;20064;-66
2022/10/23 11:48:40;;;;;;;10.63;6.20;;;15.20;99.90;;;;;;5038248;28;20520;-67
2022/10/23 11:51:24;;;;;;;11.80;7.18;;;15.20;99.90;;;;;;5036373;28;20065;-67
2022/10/23 11:53:50;;;;;;;9.43;6.60;;;15.10;99.90;;;;;;5056025;28;20049;-67
2022/10/23 11:56:15;;;;;;;12.90;6.75;;;15.10;99.90;;;;;;5044450;28;20052;-67
2022/10/23 11:58:51;;;;;;;10.55;5.85;;;15.30;99.90;;;;;;5043355;28;20057;-66
2022/10/23 12:01:33;;;;;;;11.02;6.88;;;15.20;99.90;;;;;;5002090;28;20045;-67
2022/10/23 12:04:13;;;;;;;11.30;5.85;;;15.20;99.90;;;;;;5038686;28;20041;-68
2022/10/23 12:06:45;;;;;;;14.25;7.22;;;15.30;99.90;;;;;;5034937;28;20142;-67
2022/10/23 12:09:32;;;;;;;13.13;7.15;;;15.20;99.90;;;;;;5056285;28;21151;-68
2022/10/23 12:12:27;;;;;;;12.30;7.70;;;15.30;99.90;;;;;;5066224;28;20721;-71
2022/10/23 12:14:53;;;;;;;11.85;6.40;;;15.40;99.90;;;;;;4986069;28;20103;-71
2022/10/23 12:17:24;;;;;;;13.55;8.82;;;15.40;99.90;;;;;;4999366;28;20065;-72
2022/10/23 12:19:52;;;;;;;14.40;7.80;;;15.50;99.90;;;;;;4985080;28;20778;-72
2022/10/23 12:22:21;;;;;;;16.50;6.57;;;15.40;99.90;;;;;;5001788;28;20038;-72
2022/10/23 12:25:18;;;;;;;10.95;7.97;;;15.50;99.90;;;;;;5008191;28;20321;-69
2022/10/23 12:27:57;;;;;;;14.52;7.38;;;15.50;99.90;;;;;;4999693;28;20084;-69
2022/10/23 12:30:31;;;;;;;19.25;9.30;;;15.60;99.90;;;;;;4985240;28;20108;-69
2022/10/23 12:33:06;;;;;;;10.27;6.60;;;15.60;99.90;;;;;;4996497;28;20470;-69
2022/10/23 12:35:52;;;;;;;17.33;6.35;;;15.70;99.90;;;;;;4991622;28;20058;-68
2022/10/23 12:38:24;;;;;;;8.02;5.72;;;15.70;99.90;;;;;;4980911;28;20062;-68
2022/10/23 12:40:52;;;;;;;8.77;5.40;;;15.70;99.90;;;;;;5014022;28;20083;-68
2022/10/23 12:43:40;;;;;;;10.15;5.30;;;15.70;99.90;;;;;;5014814;28;20141;-68
2022/10/23 12:46:25;;;;;;;10.70;5.20;;;15.70;99.90;;;;;;5007454;28;20057;-68
2022/10/23 12:48:53;;;;;;;9.65;5.10;;;15.80;99.90;;;;;;5018793;28;20045;-69
2022/10/23 12:51:31;;;;;;;13.77;5.63;;;15.80;99.90;;;;;;5007673;28;20049;-69
2022/10/23 12:53:57;;;;;;;9.63;5.13;;;15.80;99.90;;;;;;5038455;28;20057;-69
2022/10/23 12:56:24;;;;;;;6.90;5.18;;;15.70;99.90;;;;;;4999371;28;20045;-69
2022/10/23 12:58:59;;;;;;;9.30;4.78;;;15.80;99.90;;;;;;5045682;28;20064;-68
2022/10/23 13:01:30;;;;;;;6.85;4.72;;;15.80;99.90;;;;;;5039318;28;20084;-69